Time;durP1;ratioP1;P1;durP2;ratioP2;P2;SDS_P1;SDS_P2;PMS_P1;PMS_P2;Temp;Humidity;BMP_temperature;BMP_pressure;BME280_temperature;BME280_humidity;BME280_pressure;Samples;Min_cycle;Max_cycle;Signal;HPM_P1;HPM_P2
2021/11/17 02:26:42;;;;;;;39.28;34.25;;;;;;;;;;5054981;28;20217;-80
2021/11/17 02:29:27;;;;;;;38.40;30.83;;;;;;;;;;5054880;28;20220;-79
2021/11/17 02:32:09;;;;;;;44.15;36.65;;;;;;;;;;5055015;28;20190;-80
2021/11/17 02:34:53;;;;;;;36.72;31.58;;;;;;;;;;5051942;28;20207;-79
2021/11/17 02:37:28;;;;;;;40.15;31.83;;;;;;;;;;5053217;28;20675;-80
2021/11/17 02:40:02;;;;;;;37.88;33.75;;;;;;;;;;5054912;28;20194;-80
2021/11/17 02:42:43;;;;;;;39.75;35.15;;;;;;;;;;5037299;28;20187;-80
2021/11/17 02:45:29;;;;;;;37.80;32.67;;;;;;;;;;5054808;28;20187;-80
2021/11/17 02:48:03;;;;;;;39.78;35.60;;;;;;;;;;5054394;28;20192;-80
2021/11/17 02:50:40;;;;;;;37.23;33.43;;;;;;;;;;5054562;28;20609;-80
2021/11/17 02:53:16;;;;;;;39.92;33.47;;;;;;;;;;5054164;28;20480;-80
2021/11/17 02:55:50;;;;;;;33.20;29.95;;;;;;;;;;5054383;28;20285;-80
2021/11/17 02:58:31;;;;;;;38.22;31.75;;;;;;;;;;5054491;28;20192;-79
2021/11/17 03:01:23;;;;;;;35.78;32.28;;;;;;;;;;5054209;28;20205;-79
2021/11/17 03:03:57;;;;;;;42.47;33.85;;;;;;;;;;5054466;28;20191;-80
2021/11/17 03:06:31;;;;;;;37.22;33.53;;;;;;;;;;5054146;28;20201;-79
2021/11/17 03:09:07;;;;;;;40.70;36.30;;;;;;;;;;5054378;28;20195;-79
2021/11/17 03:11:41;;;;;;;40.67;36.00;;;;;;;;;;5053965;28;20200;-79
2021/11/17 03:14:18;;;;;;;33.67;30.15;;;;;;;;;;5036125;28;20240;-79
2021/11/17 03:17:00;;;;;;;50.15;35.78;;;;;;;;;;5053792;28;20190;-80
2021/11/17 03:19:34;;;;;;;37.70;33.35;;;;;;;;;;5054130;28;20202;-80
2021/11/17 03:22:13;;;;;;;41.55;36.67;;;;;;;;;;5054047;28;20196;-80
2021/11/17 03:24:48;;;;;;;41.50;37.03;;;;;;;;;;5054229;28;20194;-79
2021/11/17 03:27:22;;;;;;;40.17;34.80;;;;;;;;;;5053765;28;20190;-80
2021/11/17 03:29:57;;;;;;;41.03;35.65;;;;;;;;;;5053476;28;20207;-80
2021/11/17 03:32:31;;;;;;;38.80;34.33;;;;;;;;;;5035698;28;20186;-80
2021/11/17 03:35:09;;;;;;;37.88;33.97;;;;;;;;;;5053437;28;20591;-80
2021/11/17 03:37:46;;;;;;;38.22;33.85;;;;;;;;;;5035859;28;20199;-80
2021/11/17 03:40:26;;;;;;;34.95;31.13;;;;;;;;;;5036094;28;20206;-80
2021/11/17 03:43:10;;;;;;;39.30;34.90;;;;;;;;;;5053812;28;20196;-80
2021/11/17 03:45:52;;;;;;;37.15;32.80;;;;;;;;;;5053444;28;20664;-80
2021/11/17 03:48:31;;;;;;;35.25;31.75;;;;;;;;;;5050862;28;20572;-80
2021/11/17 03:51:08;;;;;;;39.03;35.08;;;;;;;;;;5053494;28;20229;-80
2021/11/17 03:53:45;;;;;;;40.40;35.75;;;;;;;;;;5053190;28;20229;-80
2021/11/17 03:56:27;;;;;;;38.53;33.38;;;;;;;;;;5053286;28;20190;-80
2021/11/17 03:59:02;;;;;;;39.33;32.40;;;;;;;;;;5050336;28;20206;-80
2021/11/17 04:01:45;;;;;;;41.17;32.95;;;;;;;;;;5053243;28;20672;-80
2021/11/17 04:04:22;;;;;;;37.70;31.70;;;;;;;;;;5053358;28;20190;-80
2021/11/17 04:06:56;;;;;;;36.25;31.45;;;;;;;;;;5035415;28;20200;-79
2021/11/17 04:09:42;;;;;;;40.75;34.05;;;;;;;;;;5053138;28;20199;-80
2021/11/17 04:12:18;;;;;;;39.08;33.38;;;;;;;;;;5053492;28;20202;-80
2021/11/17 04:14:53;;;;;;;35.22;31.75;;;;;;;;;;5053110;28;20205;-81
2021/11/17 04:17:26;;;;;;;34.95;30.75;;;;;;;;;;5052672;28;20189;-80
2021/11/17 04:20:04;;;;;;;37.17;31.58;;;;;;;;;;5035130;28;20209;-79
2021/11/17 04:22:43;;;;;;;35.85;30.33;;;;;;;;;;5052699;28;20637;-80
2021/11/17 04:25:21;;;;;;;37.35;32.35;;;;;;;;;;5052713;28;20526;-81
2021/11/17 04:27:55;;;;;;;41.60;35.50;;;;;;;;;;5049917;28;20217;-79
2021/11/17 04:30:32;;;;;;;41.90;31.48;;;;;;;;;;5052928;28;20226;-80
2021/11/17 04:33:09;;;;;;;40.65;32.75;;;;;;;;;;5052440;28;20227;-80
2021/11/17 04:35:44;;;;;;;43.88;32.22;;;;;;;;;;5052897;28;20191;-80
2021/11/17 04:38:35;;;;;;;41.65;32.55;;;;;;;;;;5052761;28;20195;-79
2021/11/17 04:41:12;;;;;;;42.45;33.15;;;;;;;;;;5032747;28;20210;-79
2021/11/17 04:43:51;;;;;;;42.70;31.27;;;;;;;;;;5052463;28;20201;-80
2021/11/17 04:46:26;;;;;;;40.03;31.42;;;;;;;;;;5034717;28;20201;-80
2021/11/17 04:49:03;;;;;;;35.30;31.23;;;;;;;;;;5035071;28;20190;-80
2021/11/17 04:51:40;;;;;;;40.00;32.78;;;;;;;;;;5052619;28;20218;-80
2021/11/17 04:54:17;;;;;;;41.53;32.45;;;;;;;;;;5052244;28;20779;-80
2021/11/17 04:57:00;;;;;;;31.52;27.77;;;;;;;;;;5035143;28;20191;-80
2021/11/17 04:59:37;;;;;;;44.85;32.78;;;;;;;;;;5052305;28;20249;-80
2021/11/17 05:02:25;;;;;;;36.40;30.10;;;;;;;;;;5034509;28;20289;-80
2021/11/17 05:05:01;;;;;;;40.53;32.05;;;;;;;;;;5046117;28;20212;-80
2021/11/17 05:07:34;;;;;;;34.08;30.73;;;;;;;;;;5052568;28;20201;-80
2021/11/17 05:10:06;;;;;;;37.55;30.38;;;;;;;;;;5052477;28;20214;-80
2021/11/17 05:12:39;;;;;;;43.47;32.40;;;;;;;;;;5034430;28;20201;-80
2021/11/17 05:15:13;;;;;;;39.35;32.70;;;;;;;;;;5052537;28;20377;-80
2021/11/17 05:17:44;;;;;;;36.22;30.85;;;;;;;;;;5052485;28;20203;-80
2021/11/17 05:20:30;;;;;;;36.92;31.67;;;;;;;;;;5052128;28;20217;-80
2021/11/17 05:23:04;;;;;;;39.67;31.23;;;;;;;;;;5052383;28;20191;-80
2021/11/17 05:25:38;;;;;;;39.50;32.28;;;;;;;;;;5052358;28;20198;-80
2021/11/17 05:28:13;;;;;;;40.35;32.10;;;;;;;;;;5034321;28;20276;-80
2021/11/17 05:30:55;;;;;;;40.60;33.90;;;;;;;;;;5034482;28;20218;-80
2021/11/17 05:33:32;;;;;;;37.75;32.05;;;;;;;;;;5049396;28;20206;-79
2021/11/17 05:36:07;;;;;;;39.67;32.28;;;;;;;;;;5049278;28;20206;-80
2021/11/17 05:38:41;;;;;;;38.40;31.48;;;;;;;;;;5051941;28;20210;-79
2021/11/17 05:41:18;;;;;;;37.75;32.22;;;;;;;;;;5052175;28;20196;-80
2021/11/17 05:43:51;;;;;;;39.05;30.95;;;;;;;;;;5052303;28;20553;-80
2021/11/17 05:46:25;;;;;;;40.10;33.97;;;;;;;;;;5051753;28;20204;-80
2021/11/17 05:48:58;;;;;;;41.63;32.50;;;;;;;;;;5051846;28;20202;-80
2021/11/17 05:51:34;;;;;;;39.40;32.90;;;;;;;;;;5051860;28;20696;-81
2021/11/17 05:54:09;;;;;;;41.33;33.67;;;;;;;;;;5051738;28;20228;-80
2021/11/17 05:56:45;;;;;;;42.77;33.67;;;;;;;;;;5054539;28;20545;-80
2021/11/17 05:59:24;;;;;;;43.85;33.88;;;;;;;;;;5055295;28;20444;-81
2021/11/17 06:01:57;;;;;;;41.33;32.85;;;;;;;;;;5055622;28;20202;-80
2021/11/17 06:04:24;;;;;;;40.75;33.55;;;;;;;;;;5055547;28;20202;-81
2021/11/17 06:06:51;;;;;;;52.58;35.47;;;;;;;;;;5055546;28;20191;-80
2021/11/17 06:09:19;;;;;;;47.88;34.25;;;;;;;;;;5037437;28;20279;-80
2021/11/17 06:11:49;;;;;;;41.75;35.13;;;;;;;;;;5055064;28;20770;-81
2021/11/17 06:14:19;;;;;;;47.42;35.55;;;;;;;;;;5055176;28;20660;-81
2021/11/17 06:16:48;;;;;;;48.45;34.30;;;;;;;;;;5055017;28;20197;-80
2021/11/17 06:19:18;;;;;;;45.22;35.88;;;;;;;;;;5055348;28;20191;-80
2021/11/17 06:21:45;;;;;;;49.10;34.58;;;;;;;;;;5055504;28;20190;-81
2021/11/17 06:24:14;;;;;;;41.13;35.25;;;;;;;;;;5055273;28;20197;-80
2021/11/17 06:26:42;;;;;;;44.78;36.70;;;;;;;;;;5054949;28;20239;-80
2021/11/17 06:29:12;;;;;;;52.75;37.10;;;;;;;;;;5037335;28;20213;-80
2021/11/17 06:31:41;;;;;;;57.72;40.08;;;;;;;;;;5055121;28;20254;-80
2021/11/17 06:34:24;;;;;;;53.92;39.10;;;;;;;;;;5054628;28;20197;-80
2021/11/17 06:36:52;;;;;;;54.90;37.87;;;;;;;;;;5054948;28;20205;-82
2021/11/17 06:39:19;;;;;;;56.10;39.70;;;;;;;;;;5054664;28;20429;-79
2021/11/17 06:41:47;;;;;;;51.88;39.22;;;;;;;;;;5054765;28;20191;-80
2021/11/17 06:44:15;;;;;;;54.60;40.80;;;;;;;;;;5054839;28;20541;-80
2021/11/17 06:46:43;;;;;;;53.58;37.92;;;;;;;;;;5054878;28;20195;-80
2021/11/17 06:49:10;;;;;;;47.65;37.75;;;;;;;;;;5054706;28;20191;-80
2021/11/17 06:51:37;;;;;;;49.92;36.75;;;;;;;;;;5053770;28;20215;-86
2021/11/17 06:54:05;;;;;;;50.53;38.35;;;;;;;;;;5055454;28;20241;-88
2021/11/17 06:56:32;;;;;;;53.63;39.83;;;;;;;;;;5055973;28;20200;-88
2021/11/17 06:58:59;;;;;;;46.22;38.15;;;;;;;;;;5055969;28;20436;-86
2021/11/17 07:01:28;;;;;;;51.00;38.60;;;;;;;;;;5056026;28;20210;-85
2021/11/17 07:03:58;;;;;;;47.90;37.58;;;;;;;;;;5056584;28;20553;-87
2021/11/17 07:06:25;;;;;;;57.97;38.60;;;;;;;;;;5054996;28;20187;-90
2021/11/17 07:08:52;;;;;;;50.05;36.47;;;;;;;;;;5055263;28;20420;-89
2021/11/17 07:11:20;;;;;;;45.00;36.13;;;;;;;;;;5055089;28;20223;-85
2021/11/17 07:13:47;;;;;;;54.78;37.85;;;;;;;;;;5037304;28;20449;-86
2021/11/17 07:16:15;;;;;;;49.88;38.80;;;;;;;;;;5055321;28;20309;-86
2021/11/17 07:18:44;;;;;;;46.55;38.63;;;;;;;;;;5055362;28;20191;-86
2021/11/17 07:21:11;;;;;;;44.42;37.58;;;;;;;;;;5055289;28;20651;-86
2021/11/17 07:23:38;;;;;;;48.28;35.83;;;;;;;;;;5054886;28;20705;-84
2021/11/17 07:26:06;;;;;;;47.33;36.33;;;;;;;;;;5054930;28;20207;-87
2021/11/17 07:28:33;;;;;;;57.13;37.08;;;;;;;;;;5054472;28;20464;-85
2021/11/17 07:31:00;;;;;;;49.93;38.60;;;;;;;;;;5053988;28;20576;-84
2021/11/17 07:33:28;;;;;;;46.78;37.00;;;;;;;;;;5054324;28;20520;-85
2021/11/17 07:35:56;;;;;;;47.35;38.10;;;;;;;;;;5054273;28;20191;-85
2021/11/17 07:38:25;;;;;;;46.70;36.78;;;;;;;;;;5054030;28;20248;-85
2021/11/17 07:40:53;;;;;;;37.50;32.97;;;;;;;;;;5060897;28;20195;-87
2021/11/17 07:43:22;;;;;;;42.33;35.97;;;;;;;;;;5065938;28;20688;-87
2021/11/17 07:45:49;;;;;;;45.43;36.90;;;;;;;;;;5072070;28;20191;-88
2021/11/17 07:48:18;;;;;;;47.15;35.75;;;;;;;;;;5074510;28;20449;-88
2021/11/17 07:50:46;;;;;;;45.58;35.45;;;;;;;;;;5075050;28;20236;-87
2021/11/17 07:53:16;;;;;;;45.47;36.30;;;;;;;;;;5074121;28;20229;-85
2021/11/17 07:55:44;;;;;;;42.90;35.88;;;;;;;;;;5074123;28;20519;-86
2021/11/17 07:58:11;;;;;;;41.88;34.55;;;;;;;;;;5074020;28;20190;-85
2021/11/17 08:00:43;;;;;;;47.58;36.60;;;;;;;;;;5055397;28;20769;-84
2021/11/17 08:03:11;;;;;;;39.42;34.85;;;;;;;;;;5074082;28;20210;-86
2021/11/17 08:05:40;;;;;;;37.58;32.95;;;;;;;;;;5074080;28;20199;-86
2021/11/17 08:08:07;;;;;;;45.97;34.38;;;;;;;;;;5073799;28;20191;-85
2021/11/17 08:10:38;;;;;;;41.63;34.83;;;;;;;;;;5073862;28;20205;-84
2021/11/17 08:13:05;;;;;;;47.15;35.72;;;;;;;;;;5073717;28;20198;-85
2021/11/17 08:15:33;;;;;;;35.50;31.40;;;;;;;;;;5072934;28;20200;-83
2021/11/17 08:18:00;;;;;;;43.67;37.47;;;;;;;;;;5072468;28;20198;-82
2021/11/17 08:20:27;;;;;;;41.90;35.70;;;;;;;;;;5073122;28;20274;-82
2021/11/17 08:22:58;;;;;;;43.78;35.10;;;;;;;;;;5057090;28;20615;-81
2021/11/17 08:25:27;;;;;;;43.63;36.80;;;;;;;;;;5052948;28;20190;-82
2021/11/17 08:27:56;;;;;;;37.90;33.80;;;;;;;;;;5055580;28;20223;-85
2021/11/17 08:30:24;;;;;;;40.97;33.53;;;;;;;;;;5074283;28;20194;-89
2021/11/17 08:32:52;;;;;;;37.60;33.60;;;;;;;;;;5074214;28;20695;-91
2021/11/17 08:35:21;;;;;;;37.88;32.63;;;;;;;;;;5074402;28;20437;-86
2021/11/17 08:37:50;;;;;;;35.92;32.10;;;;;;;;;;5073712;28;20645;-89
2021/11/17 08:40:19;;;;;;;39.83;34.27;;;;;;;;;;5073690;28;20282;-88
2021/11/17 08:42:46;;;;;;;35.83;32.03;;;;;;;;;;5081345;28;20518;-90
2021/11/17 08:45:16;;;;;;;36.87;33.17;;;;;;;;;;5073703;28;20206;-80
2021/11/17 08:47:44;;;;;;;37.10;33.17;;;;;;;;;;5072444;28;20464;-80
2021/11/17 08:50:12;;;;;;;36.53;32.97;;;;;;;;;;5073918;28;20624;-88
2021/11/17 08:52:40;;;;;;;36.88;32.85;;;;;;;;;;5073951;28;20250;-90
2021/11/17 08:55:08;;;;;;;37.90;34.00;;;;;;;;;;5074146;28;20197;-89
2021/11/17 08:57:35;;;;;;;37.13;32.57;;;;;;;;;;5056110;28;20506;-90
2021/11/17 09:00:05;;;;;;;36.22;32.38;;;;;;;;;;5073825;28;20465;-92
2021/11/17 09:02:34;;;;;;;36.05;31.15;;;;;;;;;;5072913;28;20192;-91
2021/11/17 09:05:02;;;;;;;35.17;31.33;;;;;;;;;;5074160;28;20225;-92
2021/11/17 09:07:29;;;;;;;36.27;32.30;;;;;;;;;;5073821;28;20413;-87
2021/11/17 09:09:56;;;;;;;36.60;32.88;;;;;;;;;;5074012;28;20743;-91
2021/11/17 09:12:24;;;;;;;36.43;32.97;;;;;;;;;;5073558;28;20215;-90
2021/11/17 09:14:52;;;;;;;34.13;30.63;;;;;;;;;;5073564;28;20476;-91
2021/11/17 09:17:19;;;;;;;34.95;31.42;;;;;;;;;;5073100;28;20210;-90
2021/11/17 09:19:48;;;;;;;34.50;31.00;;;;;;;;;;5073425;28;20202;-94
2021/11/17 09:22:15;;;;;;;35.38;31.23;;;;;;;;;;5073362;28;20433;-93
2021/11/17 09:24:43;;;;;;;33.85;30.65;;;;;;;;;;5057600;28;20206;-96
2021/11/17 09:27:10;;;;;;;34.17;30.63;;;;;;;;;;5074332;28;20191;-93
2021/11/17 09:29:38;;;;;;;34.00;30.47;;;;;;;;;;5074188;28;20191;-96
2021/11/17 09:32:07;;;;;;;34.30;30.70;;;;;;;;;;5076990;28;20830;-95
2021/11/17 09:34:35;;;;;;;33.33;30.00;;;;;;;;;;5059896;28;20457;-80
2021/11/17 09:37:07;;;;;;;35.13;31.57;;;;;;;;;;5075711;28;20423;-84
2021/11/17 09:39:35;;;;;;;34.07;30.67;;;;;;;;;;5077548;28;20416;-80
2021/11/17 09:42:03;;;;;;;34.58;30.98;;;;;;;;;;5076517;28;20455;-79
2021/11/17 09:44:33;;;;;;;34.30;31.00;;;;;;;;;;5075583;28;20578;-79
2021/11/17 09:47:01;;;;;;;33.03;29.83;;;;;;;;;;5075642;28;20473;-80
2021/11/17 09:49:29;;;;;;;33.87;30.47;;;;;;;;;;5075837;28;20441;-80
2021/11/17 09:52:00;;;;;;;34.20;30.80;;;;;;;;;;5067709;28;20467;-81
2021/11/17 09:54:33;;;;;;;35.67;31.87;;;;;;;;;;5055838;28;20238;-80
2021/11/17 09:57:03;;;;;;;31.67;28.85;;;;;;;;;;5055332;28;20778;-80
2021/11/17 09:59:33;;;;;;;31.97;28.87;;;;;;;;;;5055782;28;20637;-89
2021/11/17 10:02:04;;;;;;;33.80;30.17;;;;;;;;;;5055692;28;20417;-81
2021/11/17 10:04:34;;;;;;;32.43;29.07;;;;;;;;;;5055299;28;20499;-80
2021/11/17 10:15:35;;;;;;;33.80;30.60;;;;;;;;;;5130905;28;20203;-81
2021/11/17 10:18:06;;;;;;;33.50;30.30;;;;;;;;;;5130456;28;20841;-81
2021/11/17 10:20:36;;;;;;;32.83;29.60;;;;;;;;;;5131132;28;20447;-81
2021/11/17 10:23:21;;;;;;;33.58;30.38;;;;;;;;;;5131106;28;20524;-81
2021/11/17 10:25:51;;;;;;;33.20;29.90;;;;;;;;;;5130804;28;20193;-79
2021/11/17 10:28:25;;;;;;;33.40;30.00;;;;;;;;;;5130735;28;20412;-81
2021/11/17 10:30:55;;;;;;;34.73;31.27;;;;;;;;;;5130913;28;20482;-79
2021/11/17 10:33:24;;;;;;;32.37;29.47;;;;;;;;;;5130692;28;20895;-79
2021/11/17 10:35:57;;;;;;;33.60;30.23;;;;;;;;;;5130872;28;20412;-79
2021/11/17 10:38:26;;;;;;;34.17;30.90;;;;;;;;;;5130766;28;20409;-79
2021/11/17 10:40:54;;;;;;;34.73;31.53;;;;;;;;;;5130455;28;20923;-80
2021/11/17 10:43:25;;;;;;;33.33;30.23;;;;;;;;;;5130687;28;20493;-79
2021/11/17 10:45:56;;;;;;;33.53;30.37;;;;;;;;;;5130508;28;20870;-79
2021/11/17 10:48:28;;;;;;;33.37;30.00;;;;;;;;;;5130943;28;20440;-85
2021/11/17 10:51:04;;;;;;;33.60;30.10;;;;;;;;;;5130554;28;20456;-77
2021/11/17 10:53:33;;;;;;;35.67;31.13;;;;;;;;;;5130590;28;20473;-77
2021/11/17 10:56:03;;;;;;;33.97;30.27;;;;;;;;;;5130228;28;20763;-80
2021/11/17 10:58:34;;;;;;;32.13;29.03;;;;;;;;;;5130373;28;20445;-79
2021/11/17 11:01:02;;;;;;;33.00;29.90;;;;;;;;;;5130170;28;21015;-78
2021/11/17 11:03:31;;;;;;;33.60;30.30;;;;;;;;;;5130384;28;20435;-78
2021/11/17 11:06:02;;;;;;;36.20;32.60;;;;;;;;;;5119110;28;20454;-79
2021/11/17 11:08:31;;;;;;;32.20;29.07;;;;;;;;;;5111012;28;20418;-78
2021/11/17 11:11:03;;;;;;;36.80;32.90;;;;;;;;;;5109265;28;20525;-79
2021/11/17 11:13:32;;;;;;;32.30;29.00;;;;;;;;;;5109598;28;20419;-79
2021/11/17 11:16:02;;;;;;;32.33;29.20;;;;;;;;;;5109637;28;20407;-79
2021/11/17 11:18:38;;;;;;;33.23;29.93;;;;;;;;;;5109476;28;20418;-78
2021/11/17 11:21:06;;;;;;;34.80;31.43;;;;;;;;;;5110291;28;20446;-78
2021/11/17 11:23:34;;;;;;;35.70;32.17;;;;;;;;;;5099515;28;20451;-78
2021/11/17 11:26:03;;;;;;;36.50;31.70;;;;;;;;;;5096871;28;20403;-78
2021/11/17 11:28:32;;;;;;;33.47;30.37;;;;;;;;;;5096567;28;20780;-78
2021/11/17 11:31:25;;;;;;;33.40;30.00;;;;;;;;;;5097063;28;20473;-93
2021/11/17 11:34:17;;;;;;;33.70;30.60;;;;;;;;;;5096088;28;20431;-83
2021/11/17 11:36:46;;;;;;;34.33;30.73;;;;;;;;;;5095827;28;20822;-87
2021/11/17 11:39:25;;;;;;;33.13;29.97;;;;;;;;;;5096573;28;20440;-79
2021/11/17 11:42:07;;;;;;;31.23;28.40;;;;;;;;;;5096495;28;20422;-89
2021/11/17 11:44:37;;;;;;;35.73;32.23;;;;;;;;;;5094331;28;20531;-86
2021/11/17 11:47:19;;;;;;;33.87;30.67;;;;;;;;;;5096287;28;20474;-90
2021/11/17 11:49:49;;;;;;;33.27;30.30;;;;;;;;;;5097884;28;20510;-87
2021/11/17 11:52:28;;;;;;;33.57;30.37;;;;;;;;;;5096797;28;20940;-88
2021/11/17 11:55:14;;;;;;;35.07;31.50;;;;;;;;;;5097271;28;20833;-81
2021/11/17 11:57:43;;;;;;;33.30;30.03;;;;;;;;;;5097620;28;20408;-77
2021/11/17 12:00:13;;;;;;;34.13;31.03;;;;;;;;;;5099905;28;20436;-76
2021/11/17 12:02:42;;;;;;;35.93;30.70;;;;;;;;;;5096995;28;20471;-76
2021/11/17 12:05:14;;;;;;;33.30;30.10;;;;;;;;;;5096880;28;20511;-76
2021/11/17 12:07:43;;;;;;;35.10;31.47;;;;;;;;;;5097154;28;20527;-76
2021/11/17 12:10:12;;;;;;;35.40;31.70;;;;;;;;;;5096054;28;20448;-76
2021/11/17 12:12:41;;;;;;;35.97;32.58;;;;;;;;;;5096933;28;20545;-76
2021/11/17 12:15:20;;;;;;;34.00;30.50;;;;;;;;;;5100876;28;20202;-75
2021/11/17 12:17:48;;;;;;;36.47;32.57;;;;;;;;;;5099561;28;20440;-75
2021/11/17 12:20:23;;;;;;;35.13;31.70;;;;;;;;;;5097351;28;20436;-76
2021/11/17 12:22:51;;;;;;;36.37;32.43;;;;;;;;;;5095752;28;20418;-75
2021/11/17 12:25:20;;;;;;;35.88;32.25;;;;;;;;;;5094734;28;20448;-75
2021/11/17 12:27:48;;;;;;;47.20;34.90;;;;;;;;;;5094857;28;20198;-76
2021/11/17 12:30:20;;;;;;;45.77;36.40;;;;;;;;;;5094588;28;20764;-76
2021/11/17 12:32:52;;;;;;;49.63;39.23;;;;;;;;;;5094485;28;20490;-76
2021/11/17 12:35:24;;;;;;;56.87;37.07;;;;;;;;;;5093727;28;20422;-74
2021/11/17 12:37:53;;;;;;;61.07;39.97;;;;;;;;;;5094306;28;20418;-76
2021/11/17 12:40:21;;;;;;;58.90;39.87;;;;;;;;;;5094826;28;20414;-76
2021/11/17 12:42:53;;;;;;;56.00;40.77;;;;;;;;;;5094397;28;20422;-76
2021/11/17 12:45:23;;;;;;;65.43;43.10;;;;;;;;;;5094227;28;20406;-76
2021/11/17 12:47:52;;;;;;;60.67;41.27;;;;;;;;;;5094144;28;20419;-76
2021/11/17 12:50:36;;;;;;;76.70;42.57;;;;;;;;;;5094143;28;20407;-75
2021/11/17 12:53:08;;;;;;;54.33;39.43;;;;;;;;;;5093802;28;20869;-77
2021/11/17 12:55:38;;;;;;;47.40;36.77;;;;;;;;;;5094025;28;20451;-76
2021/11/17 12:58:07;;;;;;;69.60;42.40;;;;;;;;;;5093727;28;20518;-76
2021/11/17 13:00:56;;;;;;;67.83;41.17;;;;;;;;;;5094167;28;20448;-76
2021/11/17 13:03:25;;;;;;;63.17;41.80;;;;;;;;;;5093665;28;20419;-76
2021/11/17 13:06:01;;;;;;;67.10;41.83;;;;;;;;;;5093759;28;20444;-76
2021/11/17 13:08:34;;;;;;;80.70;45.47;;;;;;;;;;5093894;28;20440;-76
2021/11/17 13:11:07;;;;;;;67.33;42.47;;;;;;;;;;5093519;28;20788;-76
2021/11/17 13:13:41;;;;;;;61.57;42.20;;;;;;;;;;5093744;28;20459;-77
2021/11/17 13:16:11;;;;;;;63.23;43.47;;;;;;;;;;5093754;28;20440;-76
2021/11/17 13:18:50;;;;;;;66.13;44.30;;;;;;;;;;5093509;28;20418;-76
2021/11/17 13:21:28;;;;;;;64.40;45.77;;;;;;;;;;5093597;28;20407;-74
2021/11/17 13:24:06;;;;;;;60.85;41.90;;;;;;;;;;5093425;28;20414;-76
2021/11/17 13:26:34;;;;;;;60.83;44.27;;;;;;;;;;5093650;28;20226;-76
2021/11/17 13:29:22;;;;;;;52.13;41.20;;;;;;;;;;5093176;28;20414;-75
2021/11/17 13:31:50;;;;;;;52.90;42.57;;;;;;;;;;5093682;28;20973;-75
2021/11/17 13:34:28;;;;;;;53.40;42.27;;;;;;;;;;5076973;28;20929;-76
2021/11/17 13:36:57;;;;;;;59.97;40.37;;;;;;;;;;5099910;28;20431;-75
2021/11/17 13:39:27;;;;;;;48.13;39.37;;;;;;;;;;5098061;28;20437;-76
2021/11/17 13:41:56;;;;;;;52.83;39.80;;;;;;;;;;5078325;28;20426;-75
2021/11/17 13:44:25;;;;;;;56.63;39.90;;;;;;;;;;5097978;28;20447;-79
2021/11/17 13:47:01;;;;;;;51.80;40.67;;;;;;;;;;5099276;28;20798;-76
2021/11/17 13:49:29;;;;;;;55.53;42.63;;;;;;;;;;5099654;28;20424;-77
2021/11/17 13:51:57;;;;;;;47.50;38.03;;;;;;;;;;5096267;28;20508;-75
2021/11/17 13:54:27;;;;;;;60.37;43.37;;;;;;;;;;5098989;28;20423;-75
2021/11/17 13:56:55;;;;;;;46.47;41.47;;;;;;;;;;5099294;28;20436;-76
2021/11/17 13:59:23;;;;;;;55.13;42.13;;;;;;;;;;5097744;28;20447;-76
2021/11/17 14:01:52;;;;;;;63.83;44.63;;;;;;;;;;5097727;28;20823;-85
2021/11/17 14:04:19;;;;;;;51.93;41.57;;;;;;;;;;5098280;28;20451;-84
2021/11/17 14:06:46;;;;;;;49.40;40.20;;;;;;;;;;5097452;28;20439;-84
2021/11/17 14:09:14;;;;;;;42.63;37.43;;;;;;;;;;5094320;28;20915;-85
2021/11/17 14:11:43;;;;;;;49.60;41.47;;;;;;;;;;5094714;28;20459;-89
2021/11/17 14:14:10;;;;;;;39.77;35.60;;;;;;;;;;5095455;28;20456;-82
2021/11/17 14:16:37;;;;;;;46.67;39.00;;;;;;;;;;5094847;28;20767;-83
2021/11/17 14:19:05;;;;;;;52.83;42.27;;;;;;;;;;5093287;28;20422;-76
2021/11/17 14:21:33;;;;;;;47.87;39.83;;;;;;;;;;5093442;28;20433;-75
2021/11/17 14:24:00;;;;;;;44.20;39.37;;;;;;;;;;5094015;28;20412;-77
2021/11/17 14:26:28;;;;;;;51.50;40.93;;;;;;;;;;5092796;28;21166;-77
2021/11/17 14:29:02;;;;;;;54.37;42.13;;;;;;;;;;5094006;28;20898;-77
2021/11/17 14:31:31;;;;;;;54.13;40.30;;;;;;;;;;5093557;28;20473;-77
2021/11/17 14:34:00;;;;;;;46.30;41.40;;;;;;;;;;5093728;28;20462;-78
2021/11/17 14:36:30;;;;;;;55.47;42.60;;;;;;;;;;5096652;28;20425;-76
2021/11/17 14:39:00;;;;;;;54.93;41.20;;;;;;;;;;5093107;28;20449;-75
2021/11/17 14:41:28;;;;;;;53.17;42.63;;;;;;;;;;5094414;28;20438;-77
2021/11/17 14:43:56;;;;;;;52.40;40.33;;;;;;;;;;5093865;28;20490;-78
2021/11/17 14:46:24;;;;;;;61.47;43.77;;;;;;;;;;5093992;28;20444;-78
2021/11/17 14:48:51;;;;;;;47.03;40.60;;;;;;;;;;5093490;28;20472;-83
2021/11/17 14:51:19;;;;;;;48.70;42.00;;;;;;;;;;5092990;28;20406;-77
2021/11/17 14:53:47;;;;;;;50.70;42.63;;;;;;;;;;5094598;28;20488;-83
2021/11/17 14:56:16;;;;;;;46.73;41.77;;;;;;;;;;5094460;28;20415;-85
2021/11/17 14:58:44;;;;;;;50.77;41.90;;;;;;;;;;5098380;28;20809;-88
2021/11/17 15:01:15;;;;;;;43.73;38.40;;;;;;;;;;5098511;28;20451;-81
2021/11/17 15:03:43;;;;;;;44.43;39.57;;;;;;;;;;5099825;28;21058;-92
2021/11/17 15:06:13;;;;;;;43.07;37.70;;;;;;;;;;5113118;28;20421;-96
2021/11/17 15:08:40;;;;;;;49.70;40.63;;;;;;;;;;5458390;22;20478;-95
2021/11/17 15:11:08;;;;;;;48.00;37.70;;;;;;;;;;5082338;28;20445;-80
2021/11/17 15:13:35;;;;;;;44.27;39.77;;;;;;;;;;5066543;28;20460;-85
2021/11/17 15:16:06;;;;;;;57.00;38.37;;;;;;;;;;5060433;28;20409;-81
2021/11/17 15:18:35;;;;;;;44.60;39.80;;;;;;;;;;5058697;28;20496;-82
2021/11/17 15:21:02;;;;;;;45.50;38.07;;;;;;;;;;5062548;28;20806;-80
2021/11/17 15:23:32;;;;;;;44.30;39.70;;;;;;;;;;5067804;28;20441;-81
2021/11/17 15:26:01;;;;;;;40.90;36.53;;;;;;;;;;5066389;28;20442;-81
2021/11/17 15:28:31;;;;;;;47.20;38.03;;;;;;;;;;5064755;28;20409;-81
2021/11/17 15:31:07;;;;;;;43.77;39.23;;;;;;;;;;5064138;28;20959;-80
2021/11/17 15:33:37;;;;;;;49.03;40.77;;;;;;;;;;5057989;28;20528;-81
2021/11/17 15:36:06;;;;;;;50.93;39.60;;;;;;;;;;5056734;28;20453;-81
2021/11/17 15:38:35;;;;;;;48.40;36.57;;;;;;;;;;5056810;28;20493;-80
2021/11/17 15:41:04;;;;;;;41.03;36.80;;;;;;;;;;5056754;28;20971;-82
2021/11/17 15:43:32;;;;;;;44.73;37.23;;;;;;;;;;5057796;28;20425;-81
2021/11/17 15:46:02;;;;;;;42.87;38.60;;;;;;;;;;5057033;28;20951;-81
2021/11/17 15:48:35;;;;;;;41.33;36.33;;;;;;;;;;5056203;28;20431;-81
2021/11/17 15:51:05;;;;;;;42.00;37.00;;;;;;;;;;5070308;28;20415;-82
2021/11/17 15:53:33;;;;;;;40.97;36.47;;;;;;;;;;5075039;28;20463;-81
2021/11/17 15:56:00;;;;;;;43.43;37.83;;;;;;;;;;5076109;28;20901;-82
2021/11/17 15:58:28;;;;;;;44.03;38.87;;;;;;;;;;5076052;28;20415;-81
2021/11/17 16:00:55;;;;;;;40.77;36.43;;;;;;;;;;5076218;28;20886;-83
2021/11/17 16:03:22;;;;;;;41.90;34.63;;;;;;;;;;5076296;28;20408;-82
2021/11/17 16:05:53;;;;;;;297.33;122.00;;;;;;;;;;5075415;28;20923;-81
2021/11/17 16:08:22;;;;;;;39.40;34.97;;;;;;;;;;5071751;28;20192;-81
2021/11/17 16:10:50;;;;;;;41.20;33.57;;;;;;;;;;5056586;28;20997;-81
2021/11/17 16:13:17;;;;;;;39.03;34.80;;;;;;;;;;5055222;28;20825;-82
2021/11/17 16:15:44;;;;;;;41.90;35.23;;;;;;;;;;5056330;28;20416;-82
2021/11/17 16:18:13;;;;;;;37.77;33.63;;;;;;;;;;5057908;28;20409;-81
2021/11/17 16:20:48;;;;;;;43.00;38.27;;;;;;;;;;5056803;28;20954;-81
2021/11/17 16:26:02;;;;;;;52.17;38.60;;;;;;;;;;5056293;28;20423;-81
2021/11/17 16:28:31;;;;;;;47.17;38.53;;;;;;;;;;5058820;28;20444;-81
2021/11/17 16:30:58;;;;;;;48.00;39.20;;;;;;;;;;5057808;28;20929;-82
2021/11/17 16:33:26;;;;;;;49.20;40.77;;;;;;;;;;5058141;28;20482;-82
2021/11/17 16:35:58;;;;;;;44.40;37.40;;;;;;;;;;5058840;28;21222;-78
2021/11/17 16:38:29;;;;;;;50.67;41.53;;;;;;;;;;5063349;28;20412;-81
2021/11/17 16:40:57;;;;;;;70.90;48.40;;;;;;;;;;5059916;28;20420;-82
2021/11/17 16:43:27;;;;;;;52.57;42.63;;;;;;;;;;5076908;28;20415;-82
2021/11/17 16:45:55;;;;;;;56.87;41.23;;;;;;;;;;5077907;28;20451;-81
2021/11/17 16:48:25;;;;;;;57.80;40.50;;;;;;;;;;5074970;28;20415;-81
2021/11/17 16:50:52;;;;;;;51.13;40.63;;;;;;;;;;5076141;28;20950;-82
2021/11/17 16:53:20;;;;;;;54.80;41.73;;;;;;;;;;5077752;28;20539;-81
2021/11/17 16:55:48;;;;;;;53.37;40.70;;;;;;;;;;5077602;28;20427;-82
2021/11/17 16:58:16;;;;;;;58.40;40.10;;;;;;;;;;5076303;28;20840;-81
2021/11/17 17:00:47;;;;;;;47.63;39.23;;;;;;;;;;5077397;28;20405;-83
2021/11/17 17:03:15;;;;;;;58.83;43.50;;;;;;;;;;5076060;28;20437;-82
2021/11/17 17:05:43;;;;;;;53.37;42.70;;;;;;;;;;5077575;28;20420;-83
2021/11/17 17:08:10;;;;;;;51.47;41.67;;;;;;;;;;5076749;28;20881;-82
2021/11/17 17:10:38;;;;;;;60.10;44.00;;;;;;;;;;5074170;28;20825;-82
2021/11/17 17:13:06;;;;;;;50.80;41.50;;;;;;;;;;5074810;28;20483;-82
2021/11/17 17:15:37;;;;;;;50.97;40.20;;;;;;;;;;5079115;28;20445;-83
2021/11/17 17:18:10;;;;;;;49.17;39.73;;;;;;;;;;5082239;28;20415;-82